Time,TemperatureF,DewpointF,PressureIn,WindDirection,WindDirectionDegrees,WindSpeedMPH,WindSpeedGustMPH,Humidity,HourlyPrecipIn,Conditions,Clouds,dailyrainin,SoftwareType,DateUTC
2013-08-13 00:00:00,65.0,54.6,30.06,WNW,292,0.0,0.0,69,0.00,,FEW047,0.00,VWS V14.01,2013-08-13 06:00:00,
2013-08-13 00:05:00,64.0,54.4,30.06,NW,315,0.0,4.0,71,0.00,,FEW047,0.00,VWS V14.01,2013-08-13 06:05:00,
2013-08-13 00:10:00,64.0,51.6,30.06,NNW,337,0.0,4.0,64,0.00,,FEW047,0.00,VWS V14.01,2013-08-13 06:10:00,
2013-08-13 00:15:00,64.0,48.0,30.07,NW,315,1.0,4.0,56,0.00,,FEW047,0.00,VWS V14.01,2013-08-13 06:15:00,
2013-08-13 00:20:00,63.0,48.0,30.07,NW,315,0.0,4.0,58,0.00,,FEW047,0.00,VWS V14.01,2013-08-13 06:20:00,
2013-08-13 00:25:00,63.0,45.1,30.07,NW,315,0.0,4.0,52,0.00,,FEW047,0.00,VWS V14.01,2013-08-13 06:25:00,
2013-08-13 00:30:00,63.0,39.6,30.07,NW,315,0.0,0.0,42,0.00,,FEW047,0.00,VWS V14.01,2013-08-13 06:30:00,
2013-08-13 00:35:00,63.0,42.5,30.06,NW,315,3.0,3.0,47,0.00,,FEW047,0.00,VWS V14.01,2013-08-13 06:35:00,
2013-08-13 00:40:00,64.0,38.6,30.06,WNW,292,1.0,4.0,39,0.00,,FEW047,0.00,VWS V14.01,2013-08-13 06:40:00,
2013-08-13 00:45:00,63.0,43.6,30.06,NW,315,1.0,4.0,49,0.00,,FEW047,0.00,VWS V14.01,2013-08-13 06:45:00,
2013-08-13 00:51:00,63.0,43.6,30.06,NW,315,0.0,4.0,49,0.00,,FEW047,0.00,VWS V14.01,2013-08-13 06:51:00,
2013-08-13 00:56:00,63.0,40.8,30.07,NW,315,0.0,4.0,44,0.00,,FEW047,0.00,VWS V14.01,2013-08-13 06:56:00,
2013-08-13 01:01:00,63.0,38.3,30.07,WNW,292,0.0,3.0,40,0.00,,CLR,0.00,VWS V14.01,2013-08-13 07:01:00,
2013-08-13 01:06:00,63.0,31.9,30.07,West,270,4.0,5.0,31,0.00,,CLR,0.00,VWS V14.01,2013-08-13 07:06:00,
2013-08-13 01:11:00,63.0,38.3,30.07,WNW,292,0.0,5.0,40,0.00,,CLR,0.00,VWS V14.01,2013-08-13 07:11:00,
2013-08-13 01:16:00,63.0,35.7,30.07,WNW,292,0.0,5.0,36,0.00,,CLR,0.00,VWS V14.01,2013-08-13 07:16:00,
2013-08-13 01:21:00,62.0,39.9,30.07,NW,315,1.0,5.0,44,0.00,,CLR,0.00,VWS V14.01,2013-08-13 07:21:00,
2013-08-13 01:26:00,62.0,34.8,30.07,NW,315,3.0,5.0,36,0.00,,CLR,0.00,VWS V14.01,2013-08-13 07:26:00,
2013-08-13 01:31:00,62.0,37.4,30.07,NW,315,2.0,2.0,40,0.00,,CLR,0.00,VWS V14.01,2013-08-13 07:31:00,
2013-08-13 01:36:00,61.0,23.0,30.07,NW,315,2.0,6.0,23,0.00,,CLR,0.00,VWS V14.01,2013-08-13 07:36:00,
2013-08-13 01:41:00,61.0,28.5,30.08,NNW,337,0.0,6.0,29,0.00,,CLR,0.00,VWS V14.01,2013-08-13 07:41:00,
2013-08-13 01:46:00,61.0,25.9,30.08,NNW,337,0.0,6.0,26,0.00,,CLR,0.00,VWS V14.01,2013-08-13 07:46:00,
2013-08-13 01:51:00,62.0,23.8,30.07,NNW,337,0.0,6.0,23,0.00,,CLR,0.00,VWS V14.01,2013-08-13 07:51:00,
2013-08-13 01:56:00,62.0,10.6,30.07,WNW,292,0.0,6.0,13,0.00,,CLR,0.00,VWS V14.01,2013-08-13 07:56:00,
2013-08-13 02:01:00,62.0,18.0,30.06,WSW,247,0.0,0.0,18,0.00,,CLR,0.00,VWS V14.01,2013-08-13 08:01:00,
2013-08-13 02:06:00,62.0,10.6,30.06,West,270,0.0,0.0,13,0.00,,CLR,0.00,VWS V14.01,2013-08-13 08:06:00,
2013-08-13 02:11:00,62.0,21.6,30.06,West,270,3.0,4.0,21,0.00,,CLR,0.00,VWS V14.01,2013-08-13 08:11:00,
2013-08-13 02:16:00,62.0,21.6,30.06,WNW,292,0.0,4.0,21,0.00,,CLR,0.00,VWS V14.01,2013-08-13 08:16:00,
2013-08-13 02:21:00,62.0,29.4,30.07,NW,315,0.0,4.0,29,0.00,,CLR,0.00,VWS V14.01,2013-08-13 08:21:00,
2013-08-13 02:26:00,62.0,23.8,30.07,NW,315,0.0,4.0,23,0.00,,CLR,0.00,VWS V14.01,2013-08-13 08:26:00,
2013-08-13 02:31:00,62.0,25.8,30.07,NW,315,0.0,0.0,25,0.00,,CLR,0.00,VWS V14.01,2013-08-13 08:31:00,
2013-08-13 02:38:00,62.0,13.9,30.07,North,360,5.0,6.0,15,0.00,,CLR,0.00,VWS V14.01,2013-08-13 08:38:00,
2013-08-13 02:43:00,63.0,9.6,30.06,North,360,6.0,7.0,12,0.00,,CLR,0.00,VWS V14.01,2013-08-13 08:43:00,
2013-08-13 02:48:00,63.0,22.5,30.06,North,360,6.0,7.0,21,0.00,,CLR,0.00,VWS V14.01,2013-08-13 08:48:00,
2013-08-13 02:53:00,63.0,27.6,30.06,North,360,7.0,7.0,26,0.00,,CLR,0.00,VWS V14.01,2013-08-13 08:53:00,
2013-08-13 02:58:00,63.0,29.4,30.06,North,360,5.0,7.0,28,0.00,,CLR,0.00,VWS V14.01,2013-08-13 08:58:00,
2013-08-13 03:03:00,63.0,27.6,30.06,NNW,337,4.0,6.0,26,0.00,,BKN040,0.00,VWS V14.01,2013-08-13 09:03:00,
2013-08-13 03:08:00,63.0,24.6,30.06,NW,315,9.0,10.0,23,0.00,,BKN040,0.00,VWS V14.01,2013-08-13 09:08:00,
2013-08-13 03:13:00,63.0,27.6,30.06,NW,315,4.0,10.0,26,0.00,,BKN040,0.00,VWS V14.01,2013-08-13 09:13:00,
2013-08-13 03:18:00,63.0,24.6,30.06,NW,315,6.0,10.0,23,0.00,,BKN040,0.00,VWS V14.01,2013-08-13 09:18:00,
2013-08-13 03:23:00,63.0,20.1,30.06,NNW,337,6.0,10.0,19,0.00,,BKN040,0.00,VWS V14.01,2013-08-13 09:23:00,
2013-08-13 03:28:00,62.0,19.3,30.06,NNW,337,6.0,10.0,19,0.00,,BKN040,0.00,VWS V14.01,2013-08-13 09:28:00,
2013-08-13 03:33:00,62.0,18.0,30.06,NNW,337,0.0,3.0,18,0.00,,BKN040,0.00,VWS V14.01,2013-08-13 09:33:00,
2013-08-13 03:38:00,62.0,4.8,30.06,West,270,0.0,3.0,10,0.00,,BKN040,0.00,VWS V14.01,2013-08-13 09:38:00,
2013-08-13 03:43:00,62.0,2.5,30.06,WNW,292,0.0,5.0,9,0.00,,BKN040,0.00,VWS V14.01,2013-08-13 09:43:00,
2013-08-13 03:48:00,61.0,11.5,30.06,NW,315,0.0,5.0,14,0.00,,BKN040,0.00,VWS V14.01,2013-08-13 09:48:00,
2013-08-13 03:53:00,60.0,18.8,30.07,NNW,337,0.0,5.0,20,0.00,,BKN040,0.00,VWS V14.01,2013-08-13 09:53:00,
2013-08-13 03:58:00,60.0,3.3,30.07,NW,315,0.0,5.0,10,0.00,,BKN040,0.00,VWS V14.01,2013-08-13 09:58:00,
2013-08-13 04:03:00,60.0,7.3,30.08,North,360,0.0,0.0,12,0.00,,SCT038,0.00,VWS V14.01,2013-08-13 10:03:00,
2013-08-13 04:09:00,61.0,-10.4,30.08,NNW,337,6.0,7.0,5,0.00,,SCT038,0.00,VWS V14.01,2013-08-13 10:09:00,
2013-08-13 04:14:00,61.0,-40.4,30.08,NNE,22,6.0,7.0,1,0.00,,SCT038,0.00,VWS V14.01,2013-08-13 10:14:00,
2013-08-13 04:19:00,61.0,0.0,30.08,North,360,4.0,7.0,0,0.00,,SCT038,0.00,VWS V14.01,2013-08-13 10:19:00,
2013-08-13 04:24:00,61.0,0.0,30.08,North,360,4.0,7.0,0,0.00,,SCT038,0.00,VWS V14.01,2013-08-13 10:24:00,
2013-08-13 04:29:00,62.0,0.0,30.08,North,360,5.0,7.0,0,0.00,,SCT038,0.00,VWS V14.01,2013-08-13 10:29:00,
2013-08-13 04:34:00,62.0,0.0,30.08,North,360,5.0,6.0,0,0.00,,SCT038,0.00,VWS V14.01,2013-08-13 10:34:00,
2013-08-13 04:39:00,62.0,0.0,30.08,NE,45,4.0,6.0,0,0.00,,SCT038,0.00,VWS V14.01,2013-08-13 10:39:00,
2013-08-13 04:44:00,62.0,0.0,30.08,NE,45,2.0,6.0,0,0.00,,SCT038,0.00,VWS V14.01,2013-08-13 10:44:00,
2013-08-13 04:49:00,62.0,0.0,30.08,NE,45,3.0,6.0,0,0.00,,SCT038,0.00,VWS V14.01,2013-08-13 10:49:00,
2013-08-13 04:54:00,61.0,0.0,30.08,NE,45,2.0,6.0,0,0.00,,SCT038,0.00,VWS V14.01,2013-08-13 10:54:00,
2013-08-13 04:59:00,61.0,0.0,30.08,NE,45,1.0,6.0,0,0.00,,SCT038,0.00,VWS V14.01,2013-08-13 10:59:00,
2013-08-13 05:04:00,61.0,0.0,30.09,NE,45,0.0,2.0,0,0.00,,OVC046,0.00,VWS V14.01,2013-08-13 11:04:00,
2013-08-13 05:09:00,61.0,0.0,30.09,NW,315,0.0,2.0,0,0.00,,OVC046,0.00,VWS V14.01,2013-08-13 11:09:00,
2013-08-13 05:14:00,61.0,0.0,30.09,WNW,292,0.0,4.0,0,0.00,,OVC046,0.00,VWS V14.01,2013-08-13 11:14:00,
2013-08-13 05:19:00,61.0,0.0,30.09,NW,315,2.0,4.0,0,0.00,,OVC046,0.00,VWS V14.01,2013-08-13 11:19:00,
2013-08-13 05:24:00,60.0,0.0,30.10,WNW,292,0.0,5.0,0,0.00,,OVC046,0.00,VWS V14.01,2013-08-13 11:24:00,
2013-08-13 05:29:00,60.0,0.0,30.10,NW,315,4.0,6.0,0,0.00,,OVC046,0.00,VWS V14.01,2013-08-13 11:29:00,
2013-08-13 05:34:00,60.0,0.0,30.11,NW,315,2.0,7.0,0,0.00,,OVC046,0.00,VWS V14.01,2013-08-13 11:34:00,
2013-08-13 05:39:00,60.0,0.0,30.11,WSW,247,5.0,7.0,0,0.00,,OVC046,0.00,VWS V14.01,2013-08-13 11:39:00,
2013-08-13 05:44:00,60.0,0.0,30.11,SW,225,7.0,7.0,0,0.00,,OVC046,0.00,VWS V14.01,2013-08-13 11:44:00,
2013-08-13 05:49:00,60.0,0.0,30.11,WSW,247,6.0,8.0,0,0.00,,OVC046,0.00,VWS V14.01,2013-08-13 11:49:00,
2013-08-13 05:54:00,61.0,0.0,30.10,WSW,247,6.0,8.0,0,0.00,,OVC046,0.00,VWS V14.01,2013-08-13 11:54:00,
2013-08-13 05:59:00,61.0,0.0,30.10,WSW,247,4.0,8.0,0,0.00,,OVC046,0.00,VWS V14.01,2013-08-13 11:59:00,
2013-08-13 06:04:00,61.0,0.0,30.10,SW,225,3.0,6.0,0,0.00,,FEW035,0.00,VWS V14.01,2013-08-13 12:04:00,
2013-08-13 06:10:00,61.0,0.0,30.10,SW,225,0.0,6.0,0,0.00,,FEW035,0.00,VWS V14.01,2013-08-13 12:10:00,
2013-08-13 06:15:00,61.0,0.0,30.10,West,270,2.0,6.0,0,0.00,,FEW035,0.00,VWS V14.01,2013-08-13 12:15:00,
2013-08-13 06:20:00,61.0,0.0,30.10,WSW,247,0.0,6.0,0,0.00,,FEW035,0.00,VWS V14.01,2013-08-13 12:20:00,
2013-08-13 06:25:00,61.0,0.0,30.10,NW,315,0.0,6.0,0,0.00,,FEW035,0.00,VWS V14.01,2013-08-13 12:25:00,
2013-08-13 06:30:00,61.0,0.0,30.10,North,360,0.0,6.0,0,0.00,,FEW035,0.00,VWS V14.01,2013-08-13 12:30:00,
2013-08-13 06:35:00,61.0,0.0,30.11,NE,45,5.0,7.0,0,0.00,,FEW035,0.00,VWS V14.01,2013-08-13 12:35:00,
2013-08-13 06:40:00,61.0,0.0,30.11,NE,45,6.0,7.0,0,0.00,,FEW035,0.00,VWS V14.01,2013-08-13 12:40:00,
2013-08-13 06:45:00,61.0,0.0,30.11,ENE,67,6.0,7.0,0,0.00,,FEW035,0.00,VWS V14.01,2013-08-13 12:45:00,
2013-08-13 06:50:00,61.0,0.0,30.11,ENE,67,5.0,7.0,0,0.00,,FEW035,0.00,VWS V14.01,2013-08-13 12:50:00,
2013-08-13 06:55:00,62.0,0.0,30.10,ENE,67,2.0,7.0,0,0.00,,FEW035,0.00,VWS V14.01,2013-08-13 12:55:00,
2013-08-13 07:00:00,62.0,0.0,30.10,East,90,2.0,3.0,0,0.00,,,0.00,VWS V14.01,2013-08-13 13:00:00,
2013-08-13 07:05:00,62.0,0.0,30.10,East,90,6.0,6.0,0,0.00,,,0.00,VWS V14.01,2013-08-13 13:05:00,
2013-08-13 07:10:00,62.0,0.0,30.10,ENE,67,6.0,7.0,0,0.00,,,0.00,VWS V14.01,2013-08-13 13:10:00,
2013-08-13 07:15:00,62.0,0.0,30.10,ENE,67,3.0,7.0,0,0.00,,,0.00,VWS V14.01,2013-08-13 13:15:00,
2013-08-13 07:20:00,63.0,0.0,30.10,ENE,67,2.0,7.0,0,0.00,,,0.00,VWS V14.01,2013-08-13 13:20:00,
2013-08-13 07:25:00,63.0,-19.1,30.10,NE,45,1.0,7.0,3,0.00,,,0.00,VWS V14.01,2013-08-13 13:25:00,
2013-08-13 07:30:00,63.0,5.6,30.10,NE,45,1.0,1.0,10,0.00,,,0.00,VWS V14.01,2013-08-13 13:30:00,
2013-08-13 07:35:00,64.0,12.2,30.09,East,90,1.0,3.0,13,0.00,,,0.00,VWS V14.01,2013-08-13 13:35:00,
2013-08-13 07:40:00,64.0,29.4,30.09,ESE,112,6.0,7.0,27,0.00,,,0.00,VWS V14.01,2013-08-13 13:40:00,
2013-08-13 07:45:00,64.0,26.5,30.08,SSE,157,1.0,7.0,24,0.00,,,0.00,VWS V14.01,2013-08-13 13:45:00,
2013-08-13 07:50:00,65.0,20.5,30.08,SE,135,0.0,7.0,18,0.00,,,0.00,VWS V14.01,2013-08-13 13:50:00,
2013-08-13 07:55:00,66.0,31.1,30.07,South,180,0.0,7.0,27,0.00,,,0.00,VWS V14.01,2013-08-13 13:55:00,
2013-08-13 08:00:00,67.0,49.8,30.07,South,180,0.0,0.0,54,0.00,,CLR,0.00,VWS V14.01,2013-08-13 14:00:00,
2013-08-13 08:05:00,67.0,53.1,30.06,NE,45,0.0,0.0,61,0.00,,CLR,0.00,VWS V14.01,2013-08-13 14:05:00,
2013-08-13 08:10:00,68.0,63.3,30.06,NE,45,0.0,0.0,85,0.00,,CLR,0.00,VWS V14.01,2013-08-13 14:10:00,
2013-08-13 08:15:00,68.0,64.3,30.06,East,90,3.0,6.0,88,0.00,,CLR,0.00,VWS V14.01,2013-08-13 14:15:00,
2013-08-13 08:20:00,69.0,65.6,30.06,East,90,0.0,6.0,89,0.00,,CLR,0.00,VWS V14.01,2013-08-13 14:20:00,
2013-08-13 08:25:00,69.0,65.3,30.05,SE,135,3.0,6.0,88,0.00,,CLR,0.00,VWS V14.01,2013-08-13 14:25:00,
2013-08-13 08:30:00,69.0,65.6,30.05,East,90,0.0,0.0,89,0.00,,CLR,0.00,VWS V14.01,2013-08-13 14:30:00,
2013-08-13 08:35:00,70.0,66.0,30.05,SE,135,4.0,4.0,87,0.00,,CLR,0.00,VWS V14.01,2013-08-13 14:35:00,
2013-08-13 08:40:00,70.0,66.3,30.05,West,270,0.0,6.0,88,0.00,,CLR,0.00,VWS V14.01,2013-08-13 14:40:00,
2013-08-13 08:45:00,69.0,65.0,30.05,SE,135,7.0,9.0,87,0.00,,CLR,0.00,VWS V14.01,2013-08-13 14:45:00,
2013-08-13 08:50:00,69.0,65.3,30.05,South,180,2.0,9.0,88,0.00,,CLR,0.00,VWS V14.01,2013-08-13 14:50:00,
2013-08-13 08:55:00,70.0,66.0,30.05,SE,135,0.0,9.0,87,0.00,,CLR,0.00,VWS V14.01,2013-08-13 14:55:00,
2013-08-13 09:00:00,70.0,65.6,30.05,SW,225,6.0,8.0,86,0.00,,CLR,0.00,VWS V14.01,2013-08-13 15:00:00,
2013-08-13 09:05:00,69.0,65.6,30.05,SW,225,6.0,9.0,89,0.00,,CLR,0.00,VWS V14.01,2013-08-13 15:05:00,
2013-08-13 09:10:00,70.0,65.3,30.05,South,180,4.0,9.0,85,0.00,,CLR,0.00,VWS V14.01,2013-08-13 15:10:00,
2013-08-13 09:15:00,70.0,65.6,30.05,SSE,157,3.0,9.0,86,0.00,,CLR,0.00,VWS V14.01,2013-08-13 15:15:00,
2013-08-13 09:20:00,71.0,66.6,30.05,South,180,0.0,9.0,86,0.00,,CLR,0.00,VWS V14.01,2013-08-13 15:20:00,
2013-08-13 09:25:00,71.0,66.9,30.05,South,180,4.0,9.0,87,0.00,,CLR,0.00,VWS V14.01,2013-08-13 15:25:00,
2013-08-13 09:30:00,71.0,65.9,30.05,ENE,67,4.0,7.0,84,0.00,,CLR,0.00,VWS V14.01,2013-08-13 15:30:00,
2013-08-13 09:35:00,70.0,65.6,30.05,ENE,67,7.0,9.0,86,0.00,,CLR,0.00,VWS V14.01,2013-08-13 15:35:00,
2013-08-13 09:40:00,70.0,66.0,30.05,East,90,6.0,9.0,87,0.00,,CLR,0.00,VWS V14.01,2013-08-13 15:40:00,
2013-08-13 09:45:00,69.0,65.3,30.06,ENE,67,5.0,9.0,88,0.00,,CLR,0.00,VWS V14.01,2013-08-13 15:45:00,
2013-08-13 09:50:00,69.0,65.0,30.06,SE,135,0.0,9.0,87,0.00,,CLR,0.00,VWS V14.01,2013-08-13 15:50:00,
2013-08-13 09:55:00,70.0,66.3,30.07,East,90,0.0,9.0,88,0.00,,CLR,0.00,VWS V14.01,2013-08-13 15:55:00,
2013-08-13 10:00:00,71.0,66.6,30.07,SSE,157,5.0,5.0,86,0.00,,SCT080,0.00,VWS V14.01,2013-08-13 16:00:00,
2013-08-13 10:06:00,71.0,65.9,30.06,SE,135,6.0,9.0,84,0.00,,SCT080,0.00,VWS V14.01,2013-08-13 16:06:00,
2013-08-13 10:11:00,71.0,66.6,30.06,ESE,112,3.0,9.0,86,0.00,,SCT080,0.00,VWS V14.01,2013-08-13 16:11:00,
2013-08-13 10:16:00,71.0,65.2,30.06,ESE,112,6.0,9.0,82,0.00,,SCT080,0.00,VWS V14.01,2013-08-13 16:16:00,
2013-08-13 10:21:00,70.0,65.3,30.06,East,90,6.0,9.0,85,0.00,,SCT080,0.00,VWS V14.01,2013-08-13 16:21:00,
2013-08-13 10:26:00,71.0,65.9,30.07,East,90,7.0,10.0,84,0.00,,SCT080,0.00,VWS V14.01,2013-08-13 16:26:00,
2013-08-13 10:31:00,71.0,65.2,30.07,ENE,67,7.0,12.0,82,0.00,,SCT080,0.00,VWS V14.01,2013-08-13 16:31:00,
2013-08-13 10:36:00,71.0,65.2,30.06,East,90,5.0,12.0,82,0.00,,SCT080,0.00,VWS V14.01,2013-08-13 16:36:00,
2013-08-13 10:41:00,72.0,64.8,30.06,East,90,7.0,13.0,78,0.00,,SCT080,0.00,VWS V14.01,2013-08-13 16:41:00,
2013-08-13 10:46:00,72.0,65.5,30.06,East,90,12.0,14.0,80,0.00,,SCT080,0.00,VWS V14.01,2013-08-13 16:46:00,
2013-08-13 10:51:00,72.0,65.5,30.06,ESE,112,6.0,15.0,80,0.00,,SCT080,0.00,VWS V14.01,2013-08-13 16:51:00,
2013-08-13 10:56:00,72.0,64.8,30.05,SE,135,6.0,15.0,78,0.00,,SCT080,0.00,VWS V14.01,2013-08-13 16:56:00,
2013-08-13 11:01:00,72.0,64.8,30.05,East,90,9.0,11.0,78,0.00,,SCT023,0.00,VWS V14.01,2013-08-13 17:01:00,
2013-08-13 11:06:00,72.0,62.5,30.06,SE,135,6.0,13.0,72,0.00,,SCT023,0.00,VWS V14.01,2013-08-13 17:06:00,
2013-08-13 11:12:00,72.0,63.7,30.05,ENE,67,8.0,14.0,75,0.00,,SCT023,0.00,VWS V14.01,2013-08-13 17:12:00,
2013-08-13 11:17:00,72.0,64.0,30.05,East,90,9.0,14.0,76,0.00,,SCT023,0.00,VWS V14.01,2013-08-13 17:17:00,
2013-08-13 11:22:00,72.0,63.3,30.05,SE,135,8.0,14.0,74,0.00,,SCT023,0.00,VWS V14.01,2013-08-13 17:22:00,
2013-08-13 11:27:00,72.0,63.7,30.05,SE,135,7.0,15.0,75,0.00,,SCT023,0.00,VWS V14.01,2013-08-13 17:27:00,
2013-08-13 11:32:00,72.0,64.8,30.05,ESE,112,6.0,9.0,78,0.00,,SCT023,0.00,VWS V14.01,2013-08-13 17:32:00,
2013-08-13 11:37:00,72.0,62.9,30.05,ENE,67,9.0,13.0,73,0.00,,SCT023,0.00,VWS V14.01,2013-08-13 17:37:00,
2013-08-13 11:42:00,72.0,63.3,30.05,East,90,10.0,14.0,74,0.00,,SCT023,0.00,VWS V14.01,2013-08-13 17:42:00,
2013-08-13 11:47:00,72.0,64.4,30.05,ENE,67,10.0,14.0,77,0.00,,SCT023,0.00,VWS V14.01,2013-08-13 17:47:00,
2013-08-13 11:52:00,73.0,62.2,30.05,East,90,8.0,17.0,69,0.00,,SCT023,0.00,VWS V14.01,2013-08-13 17:52:00,
2013-08-13 11:57:00,73.0,63.0,30.05,ESE,112,9.0,17.0,71,0.00,,SCT023,0.00,VWS V14.01,2013-08-13 17:57:00,
2013-08-13 12:02:00,73.0,62.7,30.04,ESE,112,5.0,10.0,70,0.00,,FEW028,0.00,VWS V14.01,2013-08-13 18:02:00,
2013-08-13 12:07:00,74.0,63.6,30.04,East,90,7.0,11.0,70,0.00,,FEW028,0.00,VWS V14.01,2013-08-13 18:07:00,
2013-08-13 12:12:00,74.0,62.8,30.04,SSE,157,3.0,15.0,68,0.00,,FEW028,0.00,VWS V14.01,2013-08-13 18:12:00,
2013-08-13 12:17:00,74.0,62.8,30.04,SSE,157,6.0,15.0,68,0.00,,FEW028,0.00,VWS V14.01,2013-08-13 18:17:00,
2013-08-13 12:22:00,74.0,62.4,30.03,ESE,112,5.0,15.0,67,0.00,,FEW028,0.00,VWS V14.01,2013-08-13 18:22:00,
2013-08-13 12:27:00,74.0,63.2,30.03,SE,135,2.0,15.0,69,0.00,,FEW028,0.00,VWS V14.01,2013-08-13 18:27:00,
2013-08-13 12:32:00,74.0,62.4,30.03,ESE,112,6.0,11.0,67,0.00,,FEW028,0.00,VWS V14.01,2013-08-13 18:32:00,
2013-08-13 12:37:00,74.0,63.6,30.03,SE,135,6.0,11.0,70,0.00,,FEW028,0.00,VWS V14.01,2013-08-13 18:37:00,
2013-08-13 12:43:00,74.0,62.4,30.02,ESE,112,5.0,13.0,67,0.00,,FEW028,0.00,VWS V14.01,2013-08-13 18:43:00,
2013-08-13 12:48:00,76.0,63.8,30.02,SSE,157,12.0,13.0,66,0.00,,FEW028,0.00,VWS V14.01,2013-08-13 18:48:00,
2013-08-13 12:53:00,76.0,63.4,30.02,SSE,157,12.0,16.0,65,0.00,,FEW028,0.00,VWS V14.01,2013-08-13 18:53:00,
2013-08-13 12:58:00,75.0,60.7,30.02,SE,135,12.0,16.0,61,0.00,,FEW028,0.00,VWS V14.01,2013-08-13 18:58:00,
2013-08-13 13:03:00,75.0,61.1,30.01,SSE,157,11.0,15.0,62,0.00,,FEW031,0.00,VWS V14.01,2013-08-13 19:03:00,
2013-08-13 13:08:00,76.0,63.0,30.01,SE,135,10.0,15.0,64,0.00,,FEW031,0.00,VWS V14.01,2013-08-13 19:08:00,
2013-08-13 13:13:00,76.0,61.1,30.01,SSE,157,8.0,16.0,60,0.00,,FEW031,0.00,VWS V14.01,2013-08-13 19:13:00,
2013-08-13 13:18:00,76.0,62.0,30.01,East,90,9.0,16.0,62,0.00,,FEW031,0.00,VWS V14.01,2013-08-13 19:18:00,
2013-08-13 13:23:00,76.0,62.0,30.01,SSE,157,9.0,17.0,62,0.00,,FEW031,0.00,VWS V14.01,2013-08-13 19:23:00,
2013-08-13 13:28:00,76.0,62.0,30.01,East,90,9.0,17.0,62,0.00,,FEW031,0.00,VWS V14.01,2013-08-13 19:28:00,
2013-08-13 13:33:00,76.0,62.0,30.00,SE,135,9.0,16.0,62,0.00,,FEW031,0.00,VWS V14.01,2013-08-13 19:33:00,
2013-08-13 13:38:00,76.0,61.1,30.00,ESE,112,13.0,16.0,60,0.00,,FEW031,0.00,VWS V14.01,2013-08-13 19:38:00,
2013-08-13 13:43:00,76.0,62.0,29.99,SE,135,5.0,16.0,62,0.00,,FEW031,0.00,VWS V14.01,2013-08-13 19:43:00,
2013-08-13 13:48:00,76.0,62.0,29.99,SSE,157,14.0,17.0,62,0.00,,FEW031,0.00,VWS V14.01,2013-08-13 19:48:00,
2013-08-13 13:53:00,76.0,61.1,29.98,SE,135,10.0,20.0,60,0.00,,FEW031,0.00,VWS V14.01,2013-08-13 19:53:00,
2013-08-13 13:58:00,77.0,63.0,29.98,SSE,157,13.0,20.0,62,0.00,,FEW031,0.00,VWS V14.01,2013-08-13 19:58:00,
2013-08-13 14:03:00,77.0,62.5,29.98,SE,135,17.0,19.0,61,0.00,,SCT041,0.00,VWS V14.01,2013-08-13 20:03:00,
2013-08-13 14:08:00,76.0,62.0,29.98,SSE,157,13.0,20.0,62,0.00,,SCT041,0.00,VWS V14.01,2013-08-13 20:08:00,
2013-08-13 14:13:00,77.0,62.1,29.98,SSE,157,15.0,20.0,60,0.00,,SCT041,0.00,VWS V14.01,2013-08-13 20:13:00,
2013-08-13 14:18:00,76.0,63.8,29.98,SE,135,9.0,20.0,66,0.00,,SCT041,0.00,VWS V14.01,2013-08-13 20:18:00,
2013-08-13 14:23:00,76.0,63.0,29.99,ESE,112,15.0,20.0,64,0.00,,SCT041,0.00,VWS V14.01,2013-08-13 20:23:00,
2013-08-13 14:28:00,75.0,61.6,29.99,SE,135,6.0,20.0,63,0.00,,SCT041,0.00,VWS V14.01,2013-08-13 20:28:00,
2013-08-13 14:33:00,75.0,61.6,29.99,SE,135,11.0,19.0,63,0.00,,SCT041,0.00,VWS V14.01,2013-08-13 20:33:00,
2013-08-13 14:38:00,76.0,63.0,29.99,South,180,6.0,19.0,64,0.00,,SCT041,0.00,VWS V14.01,2013-08-13 20:38:00,
2013-08-13 14:43:00,76.0,62.0,29.99,SE,135,5.0,19.0,62,0.00,,SCT041,0.00,VWS V14.01,2013-08-13 20:43:00,
2013-08-13 14:48:00,76.0,62.5,29.99,SE,135,12.0,19.0,63,0.00,,SCT041,0.00,VWS V14.01,2013-08-13 20:48:00,
2013-08-13 14:53:00,75.0,61.6,29.99,SSE,157,7.0,19.0,63,0.00,,SCT041,0.00,VWS V14.01,2013-08-13 20:53:00,
2013-08-13 14:58:00,76.0,62.0,29.99,SE,135,11.0,19.0,62,0.00,,SCT041,0.00,VWS V14.01,2013-08-13 20:58:00,
2013-08-13 15:03:00,76.0,62.0,29.99,SE,135,9.0,14.0,62,0.00,,SCT043,0.00,VWS V14.01,2013-08-13 21:03:00,
2013-08-13 15:08:00,76.0,62.0,29.99,SE,135,5.0,14.0,62,0.00,,SCT043,0.00,VWS V14.01,2013-08-13 21:08:00,
2013-08-13 15:13:00,76.0,63.0,29.98,SE,135,7.0,14.0,64,0.00,,SCT043,0.00,VWS V14.01,2013-08-13 21:13:00,
2013-08-13 15:18:00,76.0,62.5,29.98,ESE,112,7.0,14.0,63,0.00,,SCT043,0.00,VWS V14.01,2013-08-13 21:18:00,
2013-08-13 15:23:00,76.0,63.0,29.97,East,90,5.0,14.0,64,0.00,,SCT043,0.00,VWS V14.01,2013-08-13 21:23:00,
2013-08-13 15:28:00,76.0,62.0,29.97,ESE,112,10.0,14.0,62,0.00,,SCT043,0.00,VWS V14.01,2013-08-13 21:28:00,
2013-08-13 15:33:00,76.0,63.0,29.97,ESE,112,0.0,10.0,64,0.00,,SCT043,0.00,VWS V14.01,2013-08-13 21:33:00,
2013-08-13 15:38:00,76.0,62.0,29.97,ESE,112,0.0,10.0,62,0.00,,SCT043,0.00,VWS V14.01,2013-08-13 21:38:00,
2013-08-13 15:43:00,76.0,62.0,29.97,SSE,157,4.0,10.0,62,0.00,,SCT043,0.00,VWS V14.01,2013-08-13 21:43:00,
2013-08-13 15:48:00,76.0,63.0,29.97,ENE,67,6.0,10.0,64,0.00,,SCT043,0.00,VWS V14.01,2013-08-13 21:48:00,
2013-08-13 15:53:00,76.0,62.0,29.97,ENE,67,4.0,10.0,62,0.00,,SCT043,0.00,VWS V14.01,2013-08-13 21:53:00,
2013-08-13 15:58:00,76.0,61.1,29.97,NE,45,0.0,10.0,60,0.00,,SCT043,0.00,VWS V14.01,2013-08-13 21:58:00,
2013-08-13 16:03:00,76.0,61.6,29.97,SE,135,0.0,5.0,61,0.00,,-RA,0.00,VWS V14.01,2013-08-13 22:03:00,
2013-08-13 16:08:00,76.0,61.1,29.97,East,90,7.0,7.0,60,0.00,,-RA,0.00,VWS V14.01,2013-08-13 22:08:00,
2013-08-13 16:14:00,76.0,63.0,29.98,East,90,5.0,9.0,64,0.00,,-RA,0.00,VWS V14.01,2013-08-13 22:14:00,
2013-08-13 16:19:00,75.0,61.1,29.98,East,90,3.0,9.0,62,0.00,,-RA,0.00,VWS V14.01,2013-08-13 22:19:00,
2013-08-13 16:24:00,75.0,60.7,29.99,NE,45,1.0,9.0,61,0.00,,-RA,0.00,VWS V14.01,2013-08-13 22:24:00,
2013-08-13 16:29:00,75.0,62.0,29.99,East,90,5.0,9.0,64,0.00,,-RA,0.00,VWS V14.01,2013-08-13 22:29:00,
2013-08-13 16:34:00,75.0,62.5,29.99,East,90,4.0,6.0,65,0.00,,-RA,0.00,VWS V14.01,2013-08-13 22:34:00,
2013-08-13 16:39:00,74.0,62.4,29.99,NNE,22,9.0,9.0,67,0.00,,-RA,0.00,VWS V14.01,2013-08-13 22:39:00,
2013-08-13 16:44:00,66.0,62.3,30.01,NNW,337,19.0,32.0,88,0.00,,-RA,0.00,VWS V14.01,2013-08-13 22:44:00,
2013-08-13 16:49:00,64.0,60.7,30.01,NNW,337,20.0,32.0,89,0.00,,-RA,0.00,VWS V14.01,2013-08-13 22:49:00,
2013-08-13 16:54:00,64.0,59.4,30.07,NW,315,17.0,32.0,85,0.00,,-RA,0.00,VWS V14.01,2013-08-13 22:54:00,
2013-08-13 16:59:00,63.0,56.7,30.07,NW,315,25.0,32.0,80,0.00,,OVC120,0.00,VWS V14.01,2013-08-13 22:59:00,
2013-08-13 17:04:00,63.0,57.1,30.07,NW,315,20.0,25.0,81,0.00,,OVC120,0.00,VWS V14.01,2013-08-13 23:04:00,
2013-08-13 17:09:00,62.0,58.1,30.07,NW,315,19.0,25.0,87,0.00,,OVC120,0.00,VWS V14.01,2013-08-13 23:09:00,
2013-08-13 17:14:00,62.0,58.1,30.07,NW,315,17.0,25.0,87,0.00,,OVC120,0.00,VWS V14.01,2013-08-13 23:14:00,
2013-08-13 17:19:00,62.0,57.5,30.07,NW,315,17.0,25.0,85,0.00,,OVC120,0.00,VWS V14.01,2013-08-13 23:19:00,
2013-08-13 17:24:00,62.0,57.1,30.07,NW,315,20.0,25.0,84,0.00,,OVC120,0.00,VWS V14.01,2013-08-13 23:24:00,
2013-08-13 17:29:00,63.0,59.7,30.07,NW,315,18.0,25.0,89,0.00,,OVC120,0.00,VWS V14.01,2013-08-13 23:29:00,
2013-08-13 17:34:00,63.0,59.1,30.06,NW,315,14.0,22.0,87,0.00,,OVC120,0.00,VWS V14.01,2013-08-13 23:34:00,
2013-08-13 17:39:00,63.0,59.4,30.06,NNW,337,13.0,22.0,88,0.00,,OVC120,0.00,VWS V14.01,2013-08-13 23:39:00,
2013-08-13 17:44:00,63.0,59.7,30.07,NNW,337,13.0,22.0,89,0.00,,OVC120,0.00,VWS V14.01,2013-08-13 23:44:00,
2013-08-13 17:49:00,63.0,59.4,30.07,North,360,13.0,22.0,88,0.00,,OVC120,0.00,VWS V14.01,2013-08-13 23:49:00,
2013-08-13 17:54:00,63.0,59.1,30.07,North,360,13.0,22.0,87,0.00,,OVC120,0.00,VWS V14.01,2013-08-13 23:54:00,
2013-08-13 17:59:00,63.0,59.4,30.07,NW,315,16.0,22.0,88,0.00,,-RA,0.00,VWS V14.01,2013-08-13 23:59:00,
2013-08-13 18:04:00,63.0,58.4,30.06,West,270,13.0,20.0,85,0.00,,-RA,0.00,VWS V14.01,2013-08-14 00:04:00,
2013-08-13 18:09:00,62.0,56.5,30.06,SW,225,17.0,20.0,82,0.00,,-RA,0.01,VWS V14.01,2013-08-14 00:09:00,
2013-08-13 18:14:00,59.0,48.1,30.09,WNW,292,25.0,25.0,67,0.06,,-RA,0.10,VWS V14.01,2013-08-14 00:14:00,
2013-08-13 18:19:00,57.0,36.4,30.09,NW,315,27.0,32.0,46,0.26,,-RA,0.26,VWS V14.01,2013-08-14 00:19:00,
2013-08-13 18:24:00,58.0,48.7,30.07,NW,315,17.0,32.0,71,0.26,,-RA,0.26,VWS V14.01,2013-08-14 00:24:00,
2013-08-13 18:29:00,59.0,48.9,30.07,NW,315,15.0,32.0,69,0.26,,-RA,0.26,VWS V14.01,2013-08-14 00:29:00,
2013-08-13 18:34:00,60.0,55.2,30.06,NW,315,13.0,19.0,84,0.26,,-RA,0.26,VWS V14.01,2013-08-14 00:34:00,
2013-08-13 18:39:00,61.0,57.1,30.06,NW,315,15.0,19.0,87,0.26,,-RA,0.26,VWS V14.01,2013-08-14 00:39:00,
2013-08-13 18:44:00,61.0,54.8,30.07,WNW,292,9.0,19.0,80,0.26,,-RA,0.26,VWS V14.01,2013-08-14 00:44:00,
2013-08-13 18:49:00,61.0,57.1,30.07,WNW,292,15.0,19.0,87,0.29,,-RA,0.29,VWS V14.01,2013-08-14 00:49:00,
2013-08-13 18:54:00,61.0,55.1,30.08,WSW,247,17.0,19.0,81,0.30,,-RA,0.31,VWS V14.01,2013-08-14 00:54:00,
2013-08-13 18:59:00,61.0,57.4,30.08,WSW,247,10.0,19.0,88,0.31,,OVC110,0.31,VWS V14.01,2013-08-14 00:59:00,
2013-08-13 19:04:00,62.0,58.7,30.07,WSW,247,9.0,15.0,89,0.31,,OVC110,0.31,VWS V14.01,2013-08-14 01:04:00,
2013-08-13 19:09:00,62.0,58.7,30.07,SW,225,11.0,16.0,89,0.31,,OVC110,0.31,VWS V14.01,2013-08-14 01:09:00,
2013-08-13 19:15:00,63.0,59.4,30.06,SW,225,18.0,20.0,88,0.31,,OVC110,0.31,VWS V14.01,2013-08-14 01:15:00,
2013-08-13 19:20:00,63.0,59.1,30.06,SW,225,15.0,23.0,87,0.31,,OVC110,0.31,VWS V14.01,2013-08-14 01:20:00,
2013-08-13 19:25:00,62.0,58.7,30.06,SSW,202,13.0,23.0,89,0.31,,OVC110,0.31,VWS V14.01,2013-08-14 01:25:00,
2013-08-13 19:30:00,62.0,58.7,30.06,South,180,12.0,23.0,89,0.31,,OVC110,0.31,VWS V14.01,2013-08-14 01:30:00,
2013-08-13 19:35:00,63.0,53.8,30.05,WNW,292,8.0,17.0,72,0.05,,OVC110,0.32,VWS V14.01,2013-08-14 01:35:00,
2013-08-13 19:40:00,64.0,56.7,30.05,NNW,337,11.0,17.0,77,0.06,,OVC110,0.32,VWS V14.01,2013-08-14 01:40:00,
2013-08-13 19:45:00,63.0,57.1,30.05,WNW,292,5.0,23.0,81,0.06,,OVC110,0.32,VWS V14.01,2013-08-14 01:45:00,
2013-08-13 19:50:00,63.0,59.1,30.05,WNW,292,9.0,23.0,87,0.06,,OVC110,0.32,VWS V14.01,2013-08-14 01:50:00,
2013-08-13 19:55:00,61.0,57.7,30.07,NW,315,11.0,23.0,89,0.06,,OVC110,0.32,VWS V14.01,2013-08-14 01:55:00,
2013-08-13 20:00:00,61.0,57.7,30.07,NNW,337,8.0,10.0,89,0.01,,BKN110,0.32,VWS V14.01,2013-08-14 02:00:00,
2013-08-13 20:05:00,61.0,57.7,30.07,NW,315,7.0,11.0,89,0.01,,BKN110,0.32,VWS V14.01,2013-08-14 02:05:00,
2013-08-13 20:10:00,62.0,57.5,30.07,NW,315,2.0,11.0,85,0.01,,BKN110,0.32,VWS V14.01,2013-08-14 02:10:00,
2013-08-13 20:15:00,61.0,56.5,30.06,North,360,9.0,12.0,85,0.02,,BKN110,0.33,VWS V14.01,2013-08-14 02:15:00,
2013-08-13 20:20:00,61.0,54.5,30.06,NE,45,9.0,12.0,79,0.02,,BKN110,0.33,VWS V14.01,2013-08-14 02:20:00,
2013-08-13 20:25:00,60.0,49.8,30.06,NNE,22,5.0,12.0,69,0.02,,BKN110,0.33,VWS V14.01,2013-08-14 02:25:00,
2013-08-13 20:30:00,60.0,39.7,30.06,North,360,9.0,12.0,47,0.02,,BKN110,0.33,VWS V14.01,2013-08-14 02:30:00,
2013-08-13 20:35:00,59.0,32.1,30.06,North,360,10.0,15.0,36,0.03,,BKN110,0.34,VWS V14.01,2013-08-14 02:35:00,
2013-08-13 20:40:00,59.0,33.5,30.06,North,360,7.0,15.0,38,0.03,,BKN110,0.34,VWS V14.01,2013-08-14 02:40:00,
2013-08-13 20:45:00,59.0,35.3,30.05,NNE,22,8.0,15.0,41,0.03,,BKN110,0.34,VWS V14.01,2013-08-14 02:45:00,
2013-08-13 20:50:00,59.0,32.8,30.05,North,360,10.0,15.0,37,0.03,,BKN110,0.34,VWS V14.01,2013-08-14 02:50:00,
2013-08-13 20:55:00,59.0,25.1,30.06,NW,315,12.0,15.0,27,0.03,,BKN110,0.34,VWS V14.01,2013-08-14 02:55:00,
2013-08-13 21:00:00,59.0,26.8,30.06,NNW,337,13.0,14.0,29,0.03,,FEW120,0.35,VWS V14.01,2013-08-14 03:00:00,
2013-08-13 21:05:00,59.0,28.4,30.07,North,360,10.0,16.0,31,0.03,,FEW120,0.35,VWS V14.01,2013-08-14 03:05:00,
2013-08-13 21:10:00,59.0,36.6,30.07,North,360,9.0,16.0,43,0.03,,FEW120,0.35,VWS V14.01,2013-08-14 03:10:00,
2013-08-13 21:15:00,59.0,36.0,30.08,NNW,337,9.0,16.0,42,0.03,,FEW120,0.35,VWS V14.01,2013-08-14 03:15:00,
2013-08-13 21:20:00,59.0,36.6,30.08,NNW,337,11.0,16.0,43,0.03,,FEW120,0.35,VWS V14.01,2013-08-14 03:20:00,
2013-08-13 21:25:00,59.0,36.6,30.11,NNW,337,7.0,16.0,43,0.03,,FEW120,0.35,VWS V14.01,2013-08-14 03:25:00,
2013-08-13 21:30:00,59.0,35.3,30.11,NNW,337,5.0,9.0,41,0.02,,FEW120,0.35,VWS V14.01,2013-08-14 03:30:00,
2013-08-13 21:36:00,59.0,35.3,30.13,SE,135,3.0,9.0,41,0.02,,FEW120,0.35,VWS V14.01,2013-08-14 03:36:00,
2013-08-13 21:41:00,59.0,24.2,30.13,SE,135,8.0,12.0,26,0.02,,FEW120,0.35,VWS V14.01,2013-08-14 03:41:00,
2013-08-13 21:46:00,59.0,26.8,30.14,ESE,112,7.0,12.0,29,0.02,,FEW120,0.35,VWS V14.01,2013-08-14 03:46:00,
2013-08-13 21:51:00,59.0,34.1,30.14,SW,225,4.0,12.0,39,0.02,,FEW120,0.35,VWS V14.01,2013-08-14 03:51:00,
2013-08-13 21:56:00,59.0,32.8,30.14,SSE,157,6.0,12.0,37,0.02,,FEW120,0.35,VWS V14.01,2013-08-14 03:56:00,
2013-08-13 22:01:00,59.0,29.2,30.14,South,180,2.0,3.0,32,0.01,,CLR,0.35,VWS V14.01,2013-08-14 04:01:00,
2013-08-13 22:02:00,59.0,31.4,30.14,South,180,1.0,3.0,35,0.01,,CLR,0.35,VWS V14.01,2013-08-14 04:02:00,
2013-08-13 22:07:00,59.0,26.0,30.14,South,180,6.0,6.0,28,0.01,,CLR,0.35,VWS V14.01,2013-08-14 04:07:00,
2013-08-13 22:12:00,59.0,26.0,30.14,South,180,7.0,9.0,28,0.01,,CLR,0.35,VWS V14.01,2013-08-14 04:12:00,
2013-08-13 22:17:00,59.0,22.3,30.14,SSE,157,4.0,9.0,24,0.01,,CLR,0.35,VWS V14.01,2013-08-14 04:17:00,
2013-08-13 22:22:00,59.0,25.1,30.13,South,180,7.0,9.0,27,0.01,,CLR,0.35,VWS V14.01,2013-08-14 04:22:00,
2013-08-13 22:27:00,59.0,18.0,30.13,SSW,202,1.0,9.0,20,0.01,,CLR,0.35,VWS V14.01,2013-08-14 04:27:00,
2013-08-13 22:32:00,59.0,21.3,30.12,SSW,202,0.0,0.0,23,0.00,,CLR,0.35,VWS V14.01,2013-08-14 04:32:00,
2013-08-13 22:37:00,59.0,16.8,30.12,SW,225,2.0,6.0,19,0.00,,CLR,0.35,VWS V14.01,2013-08-14 04:37:00,
2013-08-13 22:42:00,59.0,19.1,30.11,SW,225,2.0,6.0,21,0.00,,CLR,0.35,VWS V14.01,2013-08-14 04:42:00,
2013-08-13 22:47:00,59.0,11.4,30.11,South,180,6.0,6.0,15,0.00,,CLR,0.35,VWS V14.01,2013-08-14 04:47:00,
2013-08-13 22:52:00,59.0,12.9,30.11,SSW,202,6.0,8.0,16,0.00,,CLR,0.35,VWS V14.01,2013-08-14 04:52:00,
2013-08-13 22:57:00,59.0,6.5,30.11,SSW,202,4.0,8.0,12,0.00,,CLR,0.35,VWS V14.01,2013-08-14 04:57:00,
2013-08-13 23:02:00,59.0,8.2,30.11,SSW,202,4.0,7.0,13,0.00,,CLR,0.35,VWS V14.01,2013-08-14 05:02:00,
2013-08-13 23:07:00,59.0,2.5,30.11,SW,225,4.0,7.0,10,0.00,,CLR,0.35,VWS V14.01,2013-08-14 05:07:00,
2013-08-13 23:12:00,59.0,6.5,30.11,SW,225,6.0,7.0,12,0.00,,CLR,0.35,VWS V14.01,2013-08-14 05:12:00,
2013-08-13 23:17:00,59.0,2.5,30.11,SW,225,5.0,7.0,10,0.00,,CLR,0.35,VWS V14.01,2013-08-14 05:17:00,
2013-08-13 23:22:00,59.0,6.5,30.11,SW,225,6.0,7.0,12,0.00,,CLR,0.35,VWS V14.01,2013-08-14 05:22:00,
2013-08-13 23:27:00,59.0,2.5,30.11,SW,225,3.0,7.0,10,0.00,,CLR,0.35,VWS V14.01,2013-08-14 05:27:00,
2013-08-13 23:32:00,59.0,2.5,30.11,WSW,247,1.0,5.0,10,0.00,,CLR,0.35,VWS V14.01,2013-08-14 05:32:00,
2013-08-13 23:37:00,59.0,2.5,30.11,WSW,247,5.0,6.0,10,0.00,,CLR,0.35,VWS V14.01,2013-08-14 05:37:00,
2013-08-13 23:42:00,59.0,9.9,30.11,WSW,247,3.0,7.0,14,0.00,,CLR,0.35,VWS V14.01,2013-08-14 05:42:00,
2013-08-13 23:47:00,59.0,9.9,30.11,WSW,247,4.0,7.0,14,0.00,,CLR,0.35,VWS V14.01,2013-08-14 05:47:00,
2013-08-13 23:52:00,59.0,14.3,30.10,WSW,247,3.0,7.0,17,0.00,,CLR,0.35,VWS V14.01,2013-08-14 05:52:00,
2013-08-13 23:57:00,58.0,16.0,30.10,SW,225,1.0,7.0,19,0.00,,CLR,0.35,VWS V14.01,2013-08-14 05:57:00,